Time;durP1;ratioP1;P1;durP2;ratioP2;P2;SDS_P1;SDS_P2;PMS_P1;PMS_P2;Temp;Humidity;BMP_temperature;BMP_pressure;BME280_temperature;BME280_humidity;BME280_pressure;Samples;Min_cycle;Max_cycle;Signal;HPM_P1;HPM_P2
2022/12/05 00:00:20;;;;;;;65.75;34.97;;;4.40;99.90;;;;;;5035808;28;20051;-79
2022/12/05 00:02:45;;;;;;;60.75;35.13;;;4.40;99.90;;;;;;5019296;28;20022;-79
2022/12/05 00:05:11;;;;;;;65.78;35.78;;;4.40;99.90;;;;;;5018622;28;20033;-80
2022/12/05 00:07:37;;;;;;;63.65;35.67;;;4.40;99.90;;;;;;5035169;28;20067;-79
2022/12/05 00:10:05;;;;;;;62.20;35.42;;;4.50;99.90;;;;;;5035943;28;20033;-79
2022/12/05 00:12:30;;;;;;;64.72;35.60;;;4.70;99.90;;;;;;5038644;28;20064;-80
2022/12/05 00:14:56;;;;;;;69.85;36.88;;;4.70;99.90;;;;;;5043692;28;20033;-80
2022/12/05 00:17:22;;;;;;;68.35;37.67;;;4.60;99.90;;;;;;5011216;28;20108;-80
2022/12/05 00:19:48;;;;;;;67.80;37.40;;;4.50;99.90;;;;;;5019543;28;20030;-80
2022/12/05 00:22:13;;;;;;;66.10;37.58;;;4.40;99.90;;;;;;5036673;28;20033;-80
2022/12/05 00:24:39;;;;;;;71.10;37.50;;;4.50;99.90;;;;;;5035704;28;20088;-79
2022/12/05 00:27:05;;;;;;;70.22;38.22;;;4.40;99.90;;;;;;5035612;28;20037;-79
2022/12/05 00:29:30;;;;;;;72.20;38.38;;;4.40;99.90;;;;;;5020557;28;20363;-79
2022/12/05 00:31:56;;;;;;;69.43;37.72;;;4.40;99.90;;;;;;5019419;28;20029;-79
2022/12/05 00:34:22;;;;;;;73.88;38.75;;;4.50;99.90;;;;;;5018797;28;20145;-79
2022/12/05 00:36:47;;;;;;;72.18;36.03;;;4.40;99.90;;;;;;5018988;28;20030;-78
2022/12/05 00:39:14;;;;;;;73.18;38.65;;;4.40;99.90;;;;;;5018387;28;20037;-79
2022/12/05 00:41:41;;;;;;;75.32;39.10;;;4.40;99.90;;;;;;5017857;28;20041;-80
2022/12/05 00:44:07;;;;;;;75.70;36.58;;;4.50;99.90;;;;;;5038606;28;20033;-79
2022/12/05 00:46:34;;;;;;;73.40;36.95;;;4.40;99.90;;;;;;5038907;28;20156;-79
2022/12/05 00:49:01;;;;;;;64.43;35.22;;;4.40;99.90;;;;;;5037030;28;20509;-79
2022/12/05 00:51:32;;;;;;;69.57;37.42;;;4.50;99.90;;;;;;5035455;28;20033;-79
2022/12/05 00:54:00;;;;;;;73.35;39.10;;;4.60;99.90;;;;;;5035525;28;20516;-79
2022/12/05 00:56:28;;;;;;;74.65;37.38;;;4.60;99.90;;;;;;5018412;28;20025;-79
2022/12/05 00:58:56;;;;;;;72.95;38.75;;;4.50;99.90;;;;;;5036167;28;20061;-79
2022/12/05 01:01:22;;;;;;;72.90;39.22;;;4.50;99.90;;;;;;5035643;28;20034;-80
2022/12/05 01:03:51;;;;;;;66.90;35.28;;;4.40;99.90;;;;;;5018882;28;20064;-79
2022/12/05 01:06:17;;;;;;;73.18;37.85;;;4.40;99.90;;;;;;5022366;28;20037;-79
2022/12/05 01:08:43;;;;;;;64.68;35.45;;;4.40;99.90;;;;;;5038565;28;20029;-79
2022/12/05 01:11:12;;;;;;;75.03;38.58;;;4.50;99.90;;;;;;5035202;28;20029;-79
2022/12/05 01:13:38;;;;;;;73.10;37.28;;;4.50;99.90;;;;;;5018106;28;20038;-80
2022/12/05 01:16:05;;;;;;;72.72;38.75;;;4.40;99.90;;;;;;5035637;28;20531;-79
2022/12/05 01:18:31;;;;;;;68.13;38.03;;;4.40;99.90;;;;;;5037782;28;20033;-79
2022/12/05 01:20:57;;;;;;;70.57;37.20;;;4.40;99.90;;;;;;5020637;28;20136;-79
2022/12/05 01:23:23;;;;;;;74.03;38.08;;;4.40;99.90;;;;;;5037117;28;20482;-79
2022/12/05 01:25:50;;;;;;;75.63;37.97;;;4.30;99.90;;;;;;5035697;28;20458;-80
2022/12/05 01:28:16;;;;;;;68.13;36.80;;;4.30;99.90;;;;;;5037550;28;20036;-80
2022/12/05 01:30:45;;;;;;;74.97;38.42;;;4.40;99.90;;;;;;5039282;28;20030;-80
2022/12/05 01:33:11;;;;;;;71.95;37.25;;;4.50;99.90;;;;;;5037468;28;20087;-80
2022/12/05 01:35:39;;;;;;;68.13;37.17;;;4.50;99.90;;;;;;5023669;28;20034;-80
2022/12/05 01:38:06;;;;;;;74.03;38.28;;;4.40;99.90;;;;;;5043761;28;20059;-80
2022/12/05 01:40:34;;;;;;;63.95;35.78;;;4.30;99.90;;;;;;5039424;28;20116;-81
2022/12/05 01:43:00;;;;;;;66.63;36.30;;;4.30;99.90;;;;;;5039144;28;20029;-79
2022/12/05 01:45:46;;;;;;;72.35;39.05;;;4.30;99.90;;;;;;5036756;28;20057;-79
2022/12/05 01:48:38;;;;;;;74.20;37.50;;;4.40;99.90;;;;;;5034301;28;20040;-79
2022/12/05 01:51:04;;;;;;;67.55;35.65;;;4.30;99.90;;;;;;5017234;28;20128;-80
2022/12/05 01:53:30;;;;;;;70.13;36.83;;;4.30;99.90;;;;;;5009851;28;20068;-79
2022/12/05 01:55:56;;;;;;;70.38;36.42;;;4.30;99.90;;;;;;5036874;28;20030;-79
2022/12/05 01:58:27;;;;;;;69.22;37.28;;;4.40;99.90;;;;;;5020646;28;20033;-80
2022/12/05 02:00:52;;;;;;;71.47;36.67;;;4.40;99.90;;;;;;5037025;28;20026;-79
2022/12/05 02:03:20;;;;;;;65.13;34.17;;;4.40;99.90;;;;;;5035195;28;20047;-79
2022/12/05 02:05:49;;;;;;;63.22;34.55;;;4.40;99.90;;;;;;5034814;28;20056;-79
2022/12/05 02:08:15;;;;;;;65.82;34.10;;;4.50;99.90;;;;;;5018086;28;20040;-80
2022/12/05 02:10:45;;;;;;;70.28;37.50;;;4.50;99.90;;;;;;5017847;28;20022;-80
2022/12/05 02:13:37;;;;;;;69.95;36.28;;;4.60;99.90;;;;;;5036742;28;20063;-80
2022/12/05 02:16:32;;;;;;;65.07;34.75;;;4.40;99.90;;;;;;5035200;28;20030;-79
2022/12/05 02:19:06;;;;;;;68.68;36.85;;;4.40;99.90;;;;;;5034496;28;20103;-78
2022/12/05 02:21:56;;;;;;;64.63;36.33;;;4.40;99.90;;;;;;5032774;28;20021;-78
2022/12/05 02:24:40;;;;;;;65.78;35.67;;;4.40;99.90;;;;;;5032424;28;20025;-77
2022/12/05 02:27:40;;;;;;;61.17;33.80;;;4.40;99.90;;;;;;5034674;28;20051;-78
2022/12/05 02:30:24;;;;;;;63.88;33.75;;;4.40;99.90;;;;;;5032521;28;20030;-78
2022/12/05 02:33:04;;;;;;;65.22;33.17;;;4.50;99.90;;;;;;5016031;28;20022;-78
2022/12/05 02:36:03;;;;;;;64.45;33.75;;;4.40;99.90;;;;;;5016382;28;20078;-78
2022/12/05 02:38:37;;;;;;;65.57;34.63;;;4.50;99.90;;;;;;5034279;28;20466;-78
2022/12/05 02:41:18;;;;;;;59.47;33.90;;;4.60;99.90;;;;;;5033547;28;20060;-78
2022/12/05 02:43:52;;;;;;;66.70;34.67;;;4.50;99.90;;;;;;5034282;28;20025;-79
2022/12/05 02:46:21;;;;;;;65.93;34.35;;;4.60;99.90;;;;;;5034011;28;20052;-78
2022/12/05 02:48:52;;;;;;;63.22;34.53;;;4.60;99.90;;;;;;5033659;28;20398;-79
2022/12/05 02:51:21;;;;;;;62.33;34.05;;;4.70;99.90;;;;;;5016778;28;20025;-79
2022/12/05 02:53:50;;;;;;;65.68;34.30;;;4.80;99.90;;;;;;5029226;28;20061;-79
2022/12/05 02:56:16;;;;;;;64.25;34.05;;;4.70;99.90;;;;;;5033781;28;20048;-79
2022/12/05 02:58:52;;;;;;;64.63;35.72;;;4.70;99.90;;;;;;5032907;28;20033;-78
2022/12/05 03:01:20;;;;;;;59.10;33.22;;;4.70;99.90;;;;;;5033847;28;20205;-79
2022/12/05 03:03:47;;;;;;;62.60;35.75;;;4.70;99.90;;;;;;5033254;28;20087;-79
2022/12/05 03:06:18;;;;;;;65.57;34.38;;;4.70;99.90;;;;;;5017475;28;20117;-79
2022/12/05 03:08:52;;;;;;;61.10;34.30;;;4.70;99.90;;;;;;5019801;28;20033;-79
2022/12/05 03:11:18;;;;;;;62.20;33.83;;;4.70;99.90;;;;;;5020031;28;20022;-79
2022/12/05 03:13:56;;;;;;;64.65;33.35;;;4.70;99.90;;;;;;5037406;28;20052;-79
2022/12/05 03:16:37;;;;;;;63.40;34.40;;;4.80;99.90;;;;;;5020236;28;20462;-80
2022/12/05 03:19:08;;;;;;;57.58;33.65;;;4.90;99.90;;;;;;5019969;28;20052;-79
2022/12/05 03:21:39;;;;;;;61.67;33.92;;;5.00;99.90;;;;;;5020138;28;20042;-79
2022/12/05 03:24:09;;;;;;;61.05;32.78;;;5.00;99.90;;;;;;5019998;28;20025;-79
2022/12/05 03:27:01;;;;;;;59.78;32.70;;;4.90;99.90;;;;;;5019545;28;20028;-80
2022/12/05 03:29:54;;;;;;;60.27;32.90;;;4.90;99.90;;;;;;5036064;28;20022;-79
2022/12/05 03:32:35;;;;;;;60.97;33.47;;;4.80;99.90;;;;;;5019973;28;20037;-79
2022/12/05 03:35:16;;;;;;;61.60;32.50;;;4.80;99.90;;;;;;5019051;28;20030;-79
2022/12/05 03:37:45;;;;;;;60.00;33.97;;;4.80;99.90;;;;;;5036311;28;20033;-80
2022/12/05 03:40:23;;;;;;;61.45;32.90;;;4.80;99.90;;;;;;5036187;28;20029;-80
2022/12/05 03:43:01;;;;;;;59.10;31.70;;;4.70;99.90;;;;;;5036646;28;20029;-79
2022/12/05 03:45:33;;;;;;;60.42;34.47;;;4.80;99.90;;;;;;5036953;28;20057;-79
2022/12/05 03:48:08;;;;;;;56.70;32.80;;;4.80;99.90;;;;;;5036162;28;20029;-79
2022/12/05 03:50:38;;;;;;;58.63;32.55;;;4.90;99.90;;;;;;5037091;28;20032;-79
2022/12/05 03:53:12;;;;;;;57.47;31.80;;;4.90;99.90;;;;;;5037086;28;20030;-79
2022/12/05 03:55:40;;;;;;;56.83;33.42;;;4.90;99.90;;;;;;5035382;28;20053;-79
2022/12/05 03:58:24;;;;;;;55.00;31.40;;;4.90;99.90;;;;;;5036597;28;20045;-79
2022/12/05 04:00:53;;;;;;;60.67;33.67;;;5.00;99.90;;;;;;5036144;28;20128;-79
2022/12/05 04:03:40;;;;;;;58.88;32.80;;;4.90;99.90;;;;;;5036541;28;20086;-79
2022/12/05 04:06:32;;;;;;;60.85;33.92;;;4.80;99.90;;;;;;5035785;28;20075;-78
2022/12/05 04:09:09;;;;;;;56.97;32.78;;;4.80;99.90;;;;;;5018944;28;20029;-78
2022/12/05 04:11:39;;;;;;;56.38;33.22;;;4.90;99.90;;;;;;5018864;28;20464;-78
2022/12/05 04:14:11;;;;;;;55.25;32.60;;;5.00;99.90;;;;;;5019239;28;20116;-78
2022/12/05 04:17:04;;;;;;;59.42;33.55;;;5.00;99.90;;;;;;5035866;28;20037;-78
2022/12/05 04:22:36;;;;;;;57.22;31.30;;;4.90;99.90;;;;;;5036500;28;20087;-78
2022/12/05 04:28:06;;;;;;;61.33;32.53;;;4.90;99.90;;;;;;5036410;28;20072;-78
2022/12/05 04:30:41;;;;;;;58.53;33.47;;;4.90;99.90;;;;;;5036108;28;20028;-78
2022/12/05 04:33:21;;;;;;;52.95;30.75;;;4.90;99.90;;;;;;5017975;28;20496;-78
2022/12/05 04:36:02;;;;;;;57.15;33.33;;;5.00;99.90;;;;;;5035982;28;20034;-78
2022/12/05 04:38:56;;;;;;;56.33;31.88;;;5.00;99.90;;;;;;5035863;28;20045;-78
2022/12/05 04:41:35;;;;;;;56.65;30.60;;;5.00;99.90;;;;;;5033870;28;20037;-78
2022/12/05 04:44:05;;;;;;;56.85;31.33;;;5.00;99.90;;;;;;5019008;28;20032;-79
2022/12/05 04:46:34;;;;;;;55.83;32.28;;;5.00;99.90;;;;;;5018826;28;20029;-80
2022/12/05 04:49:04;;;;;;;52.28;31.17;;;5.00;99.90;;;;;;5018516;28;20116;-78
2022/12/05 04:51:33;;;;;;;54.47;30.75;;;4.90;99.90;;;;;;5035664;28;20462;-79
2022/12/05 04:54:22;;;;;;;50.22;30.33;;;4.80;99.90;;;;;;5035056;28;20021;-78
2022/12/05 04:56:54;;;;;;;54.33;30.35;;;4.90;99.90;;;;;;5035644;28;20044;-78
2022/12/05 04:59:20;;;;;;;54.17;31.88;;;4.90;99.90;;;;;;5035829;28;20084;-78
2022/12/05 05:01:52;;;;;;;53.65;32.10;;;5.00;99.90;;;;;;5017675;28;20025;-79
2022/12/05 05:04:39;;;;;;;50.85;30.10;;;5.00;99.90;;;;;;5017997;28;20442;-79
2022/12/05 05:07:11;;;;;;;49.35;29.25;;;4.90;99.90;;;;;;5018161;28;20032;-79
2022/12/05 05:09:37;;;;;;;51.55;30.50;;;4.90;99.90;;;;;;5017531;28;20029;-78
2022/12/05 05:12:04;;;;;;;55.50;31.48;;;4.90;99.90;;;;;;5017315;28;20083;-78
2022/12/05 05:14:29;;;;;;;53.47;31.23;;;4.90;99.90;;;;;;5035229;28;20033;-79
2022/12/05 05:16:55;;;;;;;51.05;29.92;;;4.90;99.90;;;;;;5033821;28;20384;-78
2022/12/05 05:19:21;;;;;;;50.90;29.23;;;5.00;99.90;;;;;;5017747;28;20065;-79
2022/12/05 05:21:47;;;;;;;53.75;30.60;;;5.00;99.90;;;;;;5017222;28;20057;-79
2022/12/05 05:24:14;;;;;;;52.00;30.35;;;5.10;99.90;;;;;;5017451;28;20120;-80
2022/12/05 05:26:42;;;;;;;46.33;26.90;;;5.10;99.90;;;;;;5001838;28;20112;-79
2022/12/05 05:29:09;;;;;;;49.00;27.92;;;5.20;99.90;;;;;;5017003;28;20064;-79
2022/12/05 05:31:36;;;;;;;46.67;29.00;;;5.30;99.90;;;;;;5034592;28;20510;-81
2022/12/05 05:34:02;;;;;;;46.42;28.00;;;5.20;99.90;;;;;;5017704;28;20458;-80
2022/12/05 05:36:28;;;;;;;45.47;27.85;;;5.20;99.90;;;;;;5017938;28;20042;-79
2022/12/05 05:38:56;;;;;;;47.67;29.58;;;5.30;99.90;;;;;;5016917;28;20030;-79
2022/12/05 05:41:30;;;;;;;47.08;29.20;;;5.40;99.90;;;;;;5034907;28;20343;-79
2022/12/05 05:43:57;;;;;;;47.85;28.52;;;5.20;99.90;;;;;;5034581;28;20041;-79
2022/12/05 05:46:25;;;;;;;45.80;27.95;;;5.20;99.90;;;;;;5016663;28;20025;-79
2022/12/05 05:48:51;;;;;;;48.80;28.45;;;5.20;99.90;;;;;;5016813;28;20027;-79
2022/12/05 05:51:19;;;;;;;46.88;27.60;;;5.30;99.90;;;;;;5016612;28;20030;-79
2022/12/05 05:53:45;;;;;;;46.95;27.83;;;5.30;99.90;;;;;;5016624;28;20024;-79
2022/12/05 05:56:14;;;;;;;45.45;28.67;;;5.30;99.90;;;;;;4996629;28;20061;-80
2022/12/05 05:58:40;;;;;;;44.08;28.45;;;5.30;99.90;;;;;;5014911;28;20486;-79
2022/12/05 06:01:07;;;;;;;48.83;28.42;;;5.30;99.90;;;;;;5014629;28;20026;-79
2022/12/05 06:03:32;;;;;;;46.17;27.65;;;5.30;99.90;;;;;;5015222;28;20467;-79
2022/12/05 06:06:00;;;;;;;46.85;28.05;;;5.30;99.90;;;;;;4997002;28;20037;-79
2022/12/05 06:08:29;;;;;;;45.67;27.15;;;5.30;99.90;;;;;;4997069;28;20025;-79
2022/12/05 06:10:54;;;;;;;46.10;28.13;;;5.40;99.90;;;;;;4996946;28;20089;-79
2022/12/05 06:13:20;;;;;;;43.05;27.33;;;5.40;99.90;;;;;;4997002;28;20486;-79
2022/12/05 06:15:46;;;;;;;48.47;29.60;;;5.40;99.90;;;;;;4997166;28;20475;-78
2022/12/05 06:18:12;;;;;;;46.35;29.30;;;5.40;99.90;;;;;;4997507;28;20509;-78
2022/12/05 06:20:40;;;;;;;43.65;27.92;;;5.40;99.90;;;;;;5000404;28;20068;-76
2022/12/05 06:23:06;;;;;;;36.10;23.85;;;5.40;99.90;;;;;;5017374;28;20030;-74
2022/12/05 06:25:32;;;;;;;40.40;26.10;;;5.50;99.90;;;;;;5013970;28;20088;-76
2022/12/05 06:27:58;;;;;;;38.67;26.20;;;5.50;99.90;;;;;;4997059;28;20037;-76
2022/12/05 06:30:23;;;;;;;37.03;24.65;;;5.50;99.90;;;;;;5012546;28;20537;-77
2022/12/05 06:32:49;;;;;;;38.70;25.30;;;5.50;99.90;;;;;;4996441;28;20034;-76
2022/12/05 06:35:15;;;;;;;37.92;25.40;;;5.60;99.90;;;;;;5013781;28;20030;-76
2022/12/05 06:37:42;;;;;;;38.28;25.15;;;5.70;99.90;;;;;;4996106;28;20044;-77
2022/12/05 06:40:10;;;;;;;35.35;24.25;;;5.70;99.90;;;;;;4996555;28;20030;-76
2022/12/05 06:42:35;;;;;;;37.47;25.25;;;5.80;99.90;;;;;;4980064;28;20026;-77
2022/12/05 06:45:01;;;;;;;34.92;22.65;;;5.70;99.90;;;;;;4996174;28;20084;-77
2022/12/05 06:47:27;;;;;;;36.55;24.02;;;5.60;99.90;;;;;;4997345;28;20057;-82
2022/12/05 06:49:53;;;;;;;37.75;23.48;;;5.60;99.90;;;;;;4998030;28;20041;-80
2022/12/05 06:52:18;;;;;;;39.47;23.95;;;5.50;99.90;;;;;;5003405;28;20424;-76
2022/12/05 06:54:45;;;;;;;37.28;23.85;;;5.60;99.90;;;;;;4998843;28;20053;-74
2022/12/05 06:57:11;;;;;;;35.28;23.45;;;5.50;99.90;;;;;;5013445;28;20033;-75
2022/12/05 06:59:37;;;;;;;35.15;24.70;;;5.60;99.90;;;;;;5012445;28;20518;-73
2022/12/05 07:02:07;;;;;;;32.67;22.20;;;5.70;99.90;;;;;;4996221;28;20133;-74
2022/12/05 07:04:33;;;;;;;37.47;23.50;;;5.60;99.90;;;;;;5012447;28;20037;-74
2022/12/05 07:07:00;;;;;;;37.13;25.33;;;5.70;99.90;;;;;;5013668;28;20485;-74
2022/12/05 07:09:47;;;;;;;35.38;23.88;;;5.60;99.90;;;;;;4996328;28;20037;-74
2022/12/05 07:12:14;;;;;;;36.42;23.83;;;5.60;99.90;;;;;;4998625;28;20045;-74
2022/12/05 07:14:40;;;;;;;35.28;22.85;;;5.70;99.90;;;;;;5012265;28;20470;-74
2022/12/05 07:17:05;;;;;;;31.67;21.17;;;5.80;99.90;;;;;;4996361;28;20087;-74
2022/12/05 07:19:31;;;;;;;34.72;23.60;;;5.80;99.90;;;;;;4995763;28;20034;-74
2022/12/05 07:21:56;;;;;;;33.17;22.55;;;5.90;99.90;;;;;;5012774;28;20485;-74
2022/12/05 07:24:22;;;;;;;27.73;19.63;;;5.80;99.90;;;;;;4996384;28;20358;-74
2022/12/05 07:26:48;;;;;;;31.52;22.45;;;5.90;99.90;;;;;;5013697;28;20063;-73
2022/12/05 07:29:13;;;;;;;29.60;20.77;;;6.00;99.90;;;;;;5012454;28;20026;-74
2022/12/05 07:31:39;;;;;;;29.85;20.17;;;6.10;99.90;;;;;;5012146;28;20069;-73
2022/12/05 07:34:05;;;;;;;29.70;21.67;;;6.30;99.90;;;;;;4996001;28;20122;-73
2022/12/05 07:36:31;;;;;;;30.67;21.27;;;6.30;99.90;;;;;;4995842;28;20494;-74
2022/12/05 07:38:57;;;;;;;33.53;21.88;;;6.20;99.90;;;;;;4996849;28;20034;-74
2022/12/05 07:41:26;;;;;;;29.30;20.40;;;6.20;99.90;;;;;;5012095;28;20041;-74
2022/12/05 07:43:53;;;;;;;32.45;20.98;;;6.10;99.90;;;;;;5012062;28;20026;-74
2022/12/05 07:46:19;;;;;;;29.73;20.42;;;6.10;99.90;;;;;;5011881;28;20088;-74
2022/12/05 07:48:46;;;;;;;29.80;20.75;;;6.20;99.90;;;;;;5012470;28;20088;-74
2022/12/05 07:51:11;;;;;;;29.95;20.23;;;6.20;99.90;;;;;;4995723;28;20026;-73
2022/12/05 07:53:38;;;;;;;27.63;19.27;;;6.20;99.90;;;;;;5015370;28;20463;-73
2022/12/05 07:56:06;;;;;;;29.92;20.17;;;6.10;99.90;;;;;;5034442;28;20056;-74
2022/12/05 07:58:32;;;;;;;27.95;19.45;;;6.20;99.90;;;;;;5019592;28;20419;-74
2022/12/05 08:01:09;;;;;;;29.00;19.70;;;6.20;99.90;;;;;;5035315;28;20068;-73
2022/12/05 08:03:36;;;;;;;24.90;18.15;;;6.20;99.90;;;;;;5036915;28;20083;-74
2022/12/05 08:06:13;;;;;;;25.50;18.10;;;6.20;99.90;;;;;;5036472;28;20029;-74
2022/12/05 08:08:39;;;;;;;27.52;19.77;;;6.20;99.90;;;;;;5036625;28;20465;-73
2022/12/05 08:11:11;;;;;;;30.65;20.85;;;6.40;99.90;;;;;;5035339;28;20119;-74
2022/12/05 08:13:38;;;;;;;29.17;19.75;;;6.40;99.90;;;;;;5036707;28;20044;-74
2022/12/05 08:16:06;;;;;;;29.35;18.88;;;6.40;99.90;;;;;;5018560;28;20041;-74
2022/12/05 08:18:32;;;;;;;28.50;18.85;;;6.40;99.90;;;;;;5035876;28;20041;-77
2022/12/05 08:21:02;;;;;;;27.50;19.15;;;6.40;99.90;;;;;;5036134;28;20037;-74
2022/12/05 08:23:29;;;;;;;27.98;18.88;;;6.40;99.90;;;;;;5034309;28;20483;-73
2022/12/05 08:25:55;;;;;;;28.50;20.30;;;6.40;99.90;;;;;;5018189;28;20127;-74
2022/12/05 08:28:20;;;;;;;29.58;20.05;;;6.50;99.90;;;;;;5035508;28;20528;-73
2022/12/05 08:30:46;;;;;;;27.92;19.23;;;6.50;99.90;;;;;;5034746;28;20044;-73
2022/12/05 08:33:11;;;;;;;29.40;20.05;;;6.60;99.90;;;;;;5037635;28;20057;-73
2022/12/05 08:35:37;;;;;;;30.83;21.75;;;6.70;99.90;;;;;;5035462;28;20041;-73
2022/12/05 08:38:03;;;;;;;30.25;21.13;;;6.60;99.90;;;;;;5035420;28;20454;-74
2022/12/05 08:40:30;;;;;;;34.13;21.95;;;6.40;99.90;;;;;;5017318;28;20117;-74
2022/12/05 08:42:56;;;;;;;33.70;24.33;;;6.30;99.90;;;;;;5035556;28;20034;-74
2022/12/05 08:45:22;;;;;;;33.00;21.95;;;6.30;99.90;;;;;;5035122;28;20052;-74
2022/12/05 08:47:47;;;;;;;35.50;23.63;;;6.20;99.90;;;;;;5000899;28;20041;-74
2022/12/05 08:50:13;;;;;;;32.67;22.13;;;6.30;99.90;;;;;;5024321;28;20033;-83
2022/12/05 08:52:38;;;;;;;36.92;24.85;;;6.20;99.90;;;;;;5044778;28;20026;-81
2022/12/05 08:55:04;;;;;;;36.30;23.45;;;6.20;99.90;;;;;;5035684;28;20513;-75
2022/12/05 08:57:30;;;;;;;32.17;22.05;;;6.20;99.90;;;;;;5017489;28;20056;-75
2022/12/05 08:59:56;;;;;;;34.22;22.73;;;6.30;99.90;;;;;;5034745;28;20458;-74
2022/12/05 09:02:21;;;;;;;33.25;22.20;;;6.30;99.90;;;;;;5035278;28;20030;-74
2022/12/05 09:04:53;;;;;;;38.47;24.40;;;6.40;99.90;;;;;;5016790;28;20026;-76
2022/12/05 09:07:18;;;;;;;33.75;22.88;;;6.50;99.90;;;;;;5033427;28;20127;-74
2022/12/05 09:09:44;;;;;;;39.30;24.90;;;6.50;99.90;;;;;;5017537;28;20056;-78
2022/12/05 09:12:10;;;;;;;38.40;25.48;;;6.50;99.90;;;;;;5033618;28;20108;-78
2022/12/05 09:14:35;;;;;;;37.97;23.83;;;6.60;99.90;;;;;;5034889;28;20446;-75
2022/12/05 09:17:01;;;;;;;37.60;25.13;;;6.50;99.90;;;;;;5034370;28;20029;-75
2022/12/05 09:19:27;;;;;;;39.60;24.40;;;6.40;99.90;;;;;;5034753;28;20041;-75
2022/12/05 09:21:54;;;;;;;41.85;25.52;;;6.30;99.90;;;;;;5035098;28;20036;-75
2022/12/05 09:24:20;;;;;;;34.38;22.40;;;6.30;99.90;;;;;;5034606;28;20041;-75
2022/12/05 09:26:46;;;;;;;39.40;25.58;;;6.30;99.90;;;;;;5016659;28;20100;-73
2022/12/05 09:29:12;;;;;;;34.58;21.75;;;6.40;99.90;;;;;;5033100;28;20029;-75
2022/12/05 09:31:38;;;;;;;38.50;24.30;;;6.40;99.90;;;;;;5034600;28;20029;-74
2022/12/05 09:34:03;;;;;;;38.90;24.45;;;6.40;99.90;;;;;;5033477;28;20060;-78
2022/12/05 09:36:30;;;;;;;43.22;25.60;;;6.40;99.90;;;;;;5046096;28;20036;-76
2022/12/05 09:39:04;;;;;;;45.35;26.50;;;6.40;99.90;;;;;;5034645;28;20045;-77
2022/12/05 09:42:09;;;;;;;41.53;23.38;;;6.40;99.90;;;;;;5017510;28;20029;-77
2022/12/05 09:44:46;;;;;;;47.03;25.88;;;6.40;99.90;;;;;;5033322;28;20112;-76
2022/12/05 09:47:33;;;;;;;46.22;26.83;;;6.40;99.90;;;;;;5034224;28;20494;-76
2022/12/05 09:50:16;;;;;;;46.38;26.63;;;6.40;99.90;;;;;;5034515;28;20030;-74
2022/12/05 09:52:52;;;;;;;;;;;6.40;99.90;;;;;;5033663;28;20071;-75
2022/12/05 09:55:19;;;;;;;39.28;23.25;;;6.30;99.90;;;;;;5034500;28;19964;-76
2022/12/05 09:58:11;;;;;;;46.17;27.17;;;6.40;99.90;;;;;;5034197;28;20116;-75
2022/12/05 10:00:37;;;;;;;45.45;25.50;;;6.40;99.90;;;;;;5005665;28;20094;-78
2022/12/05 10:03:18;;;;;;;44.75;26.88;;;6.50;99.90;;;;;;5034202;28;20430;-75
2022/12/05 10:05:58;;;;;;;37.17;23.42;;;6.50;99.90;;;;;;5034121;28;20026;-75
2022/12/05 10:08:58;;;;;;;43.72;24.88;;;6.50;99.90;;;;;;5034704;28;20033;-75
2022/12/05 10:11:36;;;;;;;42.58;24.25;;;6.60;99.90;;;;;;5017255;28;20096;-75
2022/12/05 10:14:05;;;;;;;41.00;24.40;;;6.70;99.90;;;;;;5034292;28;20022;-72
2022/12/05 10:16:45;;;;;;;42.35;24.63;;;6.70;99.90;;;;;;5032688;28;20386;-75
2022/12/05 10:19:36;;;;;;;38.42;22.85;;;6.80;99.90;;;;;;5034083;28;20033;-75
2022/12/05 10:22:46;;;;;;;38.25;24.42;;;6.80;99.90;;;;;;5033979;28;20030;-75
2022/12/05 10:25:17;;;;;;;39.13;23.83;;;6.90;99.90;;;;;;5005519;28;20553;-76
2022/12/05 10:27:55;;;;;;;37.58;22.80;;;6.90;99.90;;;;;;5016900;28;20029;-75
2022/12/05 10:30:23;;;;;;;41.55;24.20;;;6.90;99.90;;;;;;5016428;28;20018;-75
2022/12/05 10:33:01;;;;;;;35.90;22.50;;;6.90;99.90;;;;;;5015989;28;20362;-75
2022/12/05 10:35:33;;;;;;;37.72;24.38;;;6.90;99.90;;;;;;5032563;28;20171;-75
2022/12/05 10:38:10;;;;;;;38.60;23.40;;;6.90;99.90;;;;;;5015950;28;20033;-75
2022/12/05 10:40:39;;;;;;;36.33;23.00;;;6.90;99.90;;;;;;5033523;28;20029;-75
2022/12/05 10:43:07;;;;;;;43.05;24.52;;;6.90;99.90;;;;;;5033608;28;20029;-75
2022/12/05 10:45:42;;;;;;;33.80;21.13;;;6.90;99.90;;;;;;5032409;28;20466;-75
2022/12/05 10:48:14;;;;;;;38.20;22.85;;;6.90;99.90;;;;;;5015839;28;20026;-75
2022/12/05 10:50:41;;;;;;;35.35;22.45;;;6.90;99.90;;;;;;5033668;28;20032;-74
2022/12/05 10:53:11;;;;;;;35.05;21.52;;;6.90;99.90;;;;;;5034088;28;20018;-75
2022/12/05 10:55:40;;;;;;;36.47;21.48;;;7.00;99.90;;;;;;5028349;28;20060;-75
2022/12/05 10:58:15;;;;;;;38.88;22.38;;;6.90;99.90;;;;;;5013825;28;20034;-75
2022/12/05 11:00:47;;;;;;;36.85;22.25;;;7.00;99.90;;;;;;5029290;28;20122;-75
2022/12/05 11:03:21;;;;;;;32.85;20.27;;;7.00;99.90;;;;;;5013795;28;20026;-77
2022/12/05 11:05:52;;;;;;;33.10;20.42;;;7.00;99.90;;;;;;5026688;28;20064;-81
2022/12/05 11:08:26;;;;;;;34.80;21.35;;;7.10;99.90;;;;;;5022355;28;20061;-81
2022/12/05 11:11:16;;;;;;;33.63;22.33;;;7.20;99.90;;;;;;5020674;28;20030;-79
2022/12/05 11:14:21;;;;;;;34.58;21.00;;;7.10;99.90;;;;;;5014414;28;20026;-79
2022/12/05 11:16:53;;;;;;;35.17;20.88;;;7.10;99.90;;;;;;5017931;28;20069;-81
2022/12/05 11:19:24;;;;;;;35.22;21.75;;;7.10;99.90;;;;;;5012217;28;20372;-75
2022/12/05 11:21:51;;;;;;;32.35;20.58;;;7.10;99.90;;;;;;5029068;28;20513;-75
2022/12/05 11:24:34;;;;;;;32.58;21.20;;;7.10;99.90;;;;;;5012312;28;20097;-75
2022/12/05 11:27:18;;;;;;;;;;;7.10;99.90;;;;;;5030527;28;20466;-74
2022/12/05 11:29:54;;;;;;;35.95;22.80;;;7.10;99.90;;;;;;5033095;28;20285;-76
2022/12/05 11:32:32;;;;;;;33.22;20.40;;;7.10;99.90;;;;;;5033001;28;20061;-74
2022/12/05 11:35:12;;;;;;;30.73;19.38;;;7.10;99.90;;;;;;5017696;28;20029;-74
2022/12/05 11:37:56;;;;;;;24.13;16.30;;;7.00;99.90;;;;;;5016904;28;20117;-73
2022/12/05 11:40:34;;;;;;;30.95;19.48;;;7.00;99.90;;;;;;5017266;28;20072;-73
2022/12/05 11:43:05;;;;;;;26.33;17.33;;;7.10;99.90;;;;;;5016778;28;20026;-73
2022/12/05 11:45:40;;;;;;;26.70;17.92;;;7.10;99.90;;;;;;5032082;28;20030;-75
2022/12/05 11:48:30;;;;;;;26.70;17.73;;;7.00;99.90;;;;;;5032576;28;20033;-74
2022/12/05 11:51:23;;;;;;;23.83;15.38;;;7.20;99.90;;;;;;5032276;28;20036;-73
2022/12/05 11:54:27;;;;;;;25.98;16.45;;;7.20;99.90;;;;;;5032135;28;20040;-73
2022/12/05 11:56:57;;;;;;;;;;;7.30;99.90;;;;;;5016674;28;20070;-74
2022/12/05 11:59:49;;;;;;;24.23;14.85;;;7.40;99.90;;;;;;5031899;28;19914;-77
2022/12/05 12:03:06;;;;;;;24.67;16.40;;;7.40;99.90;;;;;;5032107;28;20030;-76
2022/12/05 12:06:07;;;;;;;21.90;14.93;;;7.40;99.90;;;;;;4991161;28;20112;-74
2022/12/05 12:08:38;;;;;;;21.70;15.18;;;7.50;99.90;;;;;;4998199;28;20099;-74
2022/12/05 12:11:21;;;;;;;23.05;15.75;;;7.50;99.90;;;;;;5016301;28;20053;-74
2022/12/05 12:13:49;;;;;;;19.65;14.45;;;7.60;99.90;;;;;;5016385;28;20348;-75
2022/12/05 12:16:36;;;;;;;19.20;15.35;;;7.60;99.90;;;;;;5016827;28;20030;-75
2022/12/05 12:19:30;;;;;;;22.23;15.55;;;7.70;99.90;;;;;;5016441;28;20091;-75
2022/12/05 12:22:21;;;;;;;21.02;16.33;;;7.70;99.90;;;;;;5016526;28;20098;-75
2022/12/05 12:24:58;;;;;;;19.27;15.50;;;7.60;99.90;;;;;;5031698;28;20034;-75
2022/12/05 12:27:30;;;;;;;17.20;13.70;;;7.50;99.90;;;;;;5016290;28;20029;-75
2022/12/05 12:30:09;;;;;;;14.98;12.10;;;7.40;99.90;;;;;;5016469;28;20109;-74
2022/12/05 12:32:46;;;;;;;15.40;12.55;;;7.50;99.90;;;;;;5016731;28;20058;-76
2022/12/05 12:35:31;;;;;;;15.50;12.85;;;7.60;99.90;;;;;;5031608;28;20022;-75
2022/12/05 12:38:21;;;;;;;16.30;12.40;;;7.60;99.90;;;;;;5016224;28;20022;-76
2022/12/05 12:40:51;;;;;;;14.88;11.60;;;7.60;99.90;;;;;;5016407;28;20041;-76
2022/12/05 12:43:53;;;;;;;13.50;11.18;;;7.70;99.90;;;;;;5031150;28;20022;-75
2022/12/05 12:46:29;;;;;;;13.40;11.13;;;7.70;99.90;;;;;;5015985;28;20029;-76
2022/12/05 12:49:08;;;;;;;12.05;10.02;;;7.70;99.90;;;;;;5016006;28;20030;-76
2022/12/05 12:51:47;;;;;;;13.30;11.32;;;7.70;99.90;;;;;;5015793;28;20076;-76
2022/12/05 12:54:22;;;;;;;13.35;10.75;;;7.80;99.90;;;;;;5033334;28;20459;-77
2022/12/05 12:56:53;;;;;;;13.32;10.85;;;7.90;99.90;;;;;;5035578;28;20056;-76
2022/12/05 12:59:25;;;;;;;14.70;10.57;;;7.90;99.90;;;;;;5035038;28;20037;-76
2022/12/05 13:02:12;;;;;;;12.40;10.40;;;7.90;99.90;;;;;;5035234;28;20112;-75
2022/12/05 13:04:48;;;;;;;11.65;9.60;;;7.90;99.90;;;;;;5035009;28;20080;-76
2022/12/05 13:07:18;;;;;;;12.15;10.13;;;7.80;99.90;;;;;;5035292;28;20025;-76
2022/12/05 13:09:55;;;;;;;11.90;8.93;;;7.90;99.90;;;;;;5016853;28;20496;-76